sensor_id;sensor_type;location;lat;lon;timestamp;P1;durP1;ratioP1;P2;durP2;ratioP2
11807;SDS011;5961;42.640;23.380;2023-02-15T00:00:00;39.50;;;22.53;;
11807;SDS011;5961;42.640;23.380;2023-02-15T00:02:26;37.43;;;22.27;;
11807;SDS011;5961;42.640;23.380;2023-02-15T00:04:54;37.47;;;22.07;;
11807;SDS011;5961;42.640;23.380;2023-02-15T00:07:21;37.70;;;21.87;;
11807;SDS011;5961;42.640;23.380;2023-02-15T00:09:48;34.27;;;21.30;;
11807;SDS011;5961;42.640;23.380;2023-02-15T00:12:15;34.83;;;21.37;;
11807;SDS011;5961;42.640;23.380;2023-02-15T00:14:42;41.07;;;22.23;;
11807;SDS011;5961;42.640;23.380;2023-02-15T00:17:09;38.80;;;22.10;;
11807;SDS011;5961;42.640;23.380;2023-02-15T00:19:35;40.37;;;22.77;;
11807;SDS011;5961;42.640;23.380;2023-02-15T00:22:04;40.73;;;23.17;;
11807;SDS011;5961;42.640;23.380;2023-02-15T00:24:30;39.17;;;22.77;;
11807;SDS011;5961;42.640;23.380;2023-02-15T00:26:57;38.67;;;22.10;;
11807;SDS011;5961;42.640;23.380;2023-02-15T00:29:24;37.77;;;22.60;;
11807;SDS011;5961;42.640;23.380;2023-02-15T00:31:51;38.33;;;22.70;;
11807;SDS011;5961;42.640;23.380;2023-02-15T00:34:19;37.03;;;22.70;;
11807;SDS011;5961;42.640;23.380;2023-02-15T00:36:47;37.53;;;22.00;;
11807;SDS011;5961;42.640;23.380;2023-02-15T00:39:15;34.97;;;21.00;;
11807;SDS011;5961;42.640;23.380;2023-02-15T00:41:43;34.57;;;21.77;;
11807;SDS011;5961;42.640;23.380;2023-02-15T00:44:10;35.53;;;21.80;;
11807;SDS011;5961;42.640;23.380;2023-02-15T00:46:37;35.57;;;21.60;;
11807;SDS011;5961;42.640;23.380;2023-02-15T00:49:04;37.10;;;21.50;;
11807;SDS011;5961;42.640;23.380;2023-02-15T00:51:31;37.27;;;21.53;;
11807;SDS011;5961;42.640;23.380;2023-02-15T00:53:58;34.23;;;21.40;;
11807;SDS011;5961;42.640;23.380;2023-02-15T00:56:26;36.40;;;21.47;;
11807;SDS011;5961;42.640;23.380;2023-02-15T00:58:53;36.57;;;22.10;;
11807;SDS011;5961;42.640;23.380;2023-02-15T01:01:20;34.63;;;21.47;;
11807;SDS011;5961;42.640;23.380;2023-02-15T01:03:48;35.90;;;21.30;;
11807;SDS011;5961;42.640;23.380;2023-02-15T01:06:15;38.80;;;22.50;;
11807;SDS011;5961;42.640;23.380;2023-02-15T01:08:43;36.10;;;21.73;;
11807;SDS011;5961;42.640;23.380;2023-02-15T01:11:11;34.37;;;20.03;;
11807;SDS011;5961;42.640;23.380;2023-02-15T01:13:41;33.60;;;21.03;;
11807;SDS011;5961;42.640;23.380;2023-02-15T01:16:08;35.13;;;20.17;;
11807;SDS011;5961;42.640;23.380;2023-02-15T01:18:35;33.70;;;20.87;;
11807;SDS011;5961;42.640;23.380;2023-02-15T01:21:08;34.93;;;21.43;;
11807;SDS011;5961;42.640;23.380;2023-02-15T01:23:36;33.73;;;21.50;;
11807;SDS011;5961;42.640;23.380;2023-02-15T01:26:03;34.47;;;20.60;;
11807;SDS011;5961;42.640;23.380;2023-02-15T01:28:30;34.80;;;20.97;;
11807;SDS011;5961;42.640;23.380;2023-02-15T01:30:58;35.73;;;21.23;;
11807;SDS011;5961;42.640;23.380;2023-02-15T01:33:25;33.00;;;20.50;;
11807;SDS011;5961;42.640;23.380;2023-02-15T01:35:55;32.27;;;19.27;;
11807;SDS011;5961;42.640;23.380;2023-02-15T01:38:23;34.27;;;20.93;;
11807;SDS011;5961;42.640;23.380;2023-02-15T01:40:50;34.77;;;20.97;;
11807;SDS011;5961;42.640;23.380;2023-02-15T01:43:17;38.57;;;21.87;;
11807;SDS011;5961;42.640;23.380;2023-02-15T01:45:44;34.97;;;19.03;;
11807;SDS011;5961;42.640;23.380;2023-02-15T01:48:17;34.20;;;20.90;;
11807;SDS011;5961;42.640;23.380;2023-02-15T01:50:48;34.00;;;21.57;;
11807;SDS011;5961;42.640;23.380;2023-02-15T01:53:18;31.97;;;19.87;;
11807;SDS011;5961;42.640;23.380;2023-02-15T01:55:50;36.83;;;21.03;;
11807;SDS011;5961;42.640;23.380;2023-02-15T01:58:21;32.13;;;20.63;;
11807;SDS011;5961;42.640;23.380;2023-02-15T02:00:49;35.23;;;21.03;;
11807;SDS011;5961;42.640;23.380;2023-02-15T02:03:17;34.53;;;21.63;;
11807;SDS011;5961;42.640;23.380;2023-02-15T02:05:47;34.60;;;19.67;;
11807;SDS011;5961;42.640;23.380;2023-02-15T02:08:13;34.03;;;21.27;;
11807;SDS011;5961;42.640;23.380;2023-02-15T02:10:40;34.70;;;20.93;;
11807;SDS011;5961;42.640;23.380;2023-02-15T02:13:07;29.90;;;20.03;;
11807;SDS011;5961;42.640;23.380;2023-02-15T02:15:37;36.17;;;20.77;;
11807;SDS011;5961;42.640;23.380;2023-02-15T02:18:12;31.43;;;19.80;;
11807;SDS011;5961;42.640;23.380;2023-02-15T02:21:02;31.00;;;20.20;;
11807;SDS011;5961;42.640;23.380;2023-02-15T02:23:54;33.23;;;20.57;;
11807;SDS011;5961;42.640;23.380;2023-02-15T02:26:53;35.37;;;21.27;;
11807;SDS011;5961;42.640;23.380;2023-02-15T02:32:55;31.73;;;20.17;;
11807;SDS011;5961;42.640;23.380;2023-02-15T02:35:38;32.53;;;20.60;;
11807;SDS011;5961;42.640;23.380;2023-02-15T02:38:10;35.90;;;21.17;;
11807;SDS011;5961;42.640;23.380;2023-02-15T02:40:47;36.37;;;21.07;;
11807;SDS011;5961;42.640;23.380;2023-02-15T02:43:23;32.17;;;19.70;;
11807;SDS011;5961;42.640;23.380;2023-02-15T02:45:56;31.67;;;19.17;;
11807;SDS011;5961;42.640;23.380;2023-02-15T02:48:29;34.13;;;19.83;;
11807;SDS011;5961;42.640;23.380;2023-02-15T02:50:58;33.50;;;20.60;;
11807;SDS011;5961;42.640;23.380;2023-02-15T02:53:25;32.63;;;20.30;;
11807;SDS011;5961;42.640;23.380;2023-02-15T02:55:53;32.93;;;20.13;;
11807;SDS011;5961;42.640;23.380;2023-02-15T02:58:24;31.93;;;19.30;;
11807;SDS011;5961;42.640;23.380;2023-02-15T03:00:55;32.83;;;19.60;;
11807;SDS011;5961;42.640;23.380;2023-02-15T03:03:24;31.47;;;18.10;;
11807;SDS011;5961;42.640;23.380;2023-02-15T03:05:56;33.70;;;18.63;;
11807;SDS011;5961;42.640;23.380;2023-02-15T03:08:26;36.63;;;19.77;;
11807;SDS011;5961;42.640;23.380;2023-02-15T03:10:58;30.17;;;20.00;;
11807;SDS011;5961;42.640;23.380;2023-02-15T03:13:26;30.17;;;18.60;;
11807;SDS011;5961;42.640;23.380;2023-02-15T03:15:54;30.40;;;19.60;;
11807;SDS011;5961;42.640;23.380;2023-02-15T03:18:42;31.53;;;19.23;;
11807;SDS011;5961;42.640;23.380;2023-02-15T03:21:19;30.50;;;19.07;;
11807;SDS011;5961;42.640;23.380;2023-02-15T03:23:51;30.87;;;18.47;;
11807;SDS011;5961;42.640;23.380;2023-02-15T03:26:20;29.13;;;18.23;;
11807;SDS011;5961;42.640;23.380;2023-02-15T03:28:49;29.70;;;18.97;;
11807;SDS011;5961;42.640;23.380;2023-02-15T03:31:19;31.03;;;18.97;;
11807;SDS011;5961;42.640;23.380;2023-02-15T03:33:50;30.30;;;19.23;;
11807;SDS011;5961;42.640;23.380;2023-02-15T03:36:24;30.50;;;18.80;;
11807;SDS011;5961;42.640;23.380;2023-02-15T03:39:04;29.73;;;18.63;;
11807;SDS011;5961;42.640;23.380;2023-02-15T03:41:37;31.40;;;18.67;;
11807;SDS011;5961;42.640;23.380;2023-02-15T03:44:09;28.73;;;17.67;;
11807;SDS011;5961;42.640;23.380;2023-02-15T03:46:42;30.93;;;18.17;;
11807;SDS011;5961;42.640;23.380;2023-02-15T03:49:14;27.00;;;17.30;;
11807;SDS011;5961;42.640;23.380;2023-02-15T03:51:48;30.50;;;18.90;;
11807;SDS011;5961;42.640;23.380;2023-02-15T03:54:20;32.90;;;19.00;;
11807;SDS011;5961;42.640;23.380;2023-02-15T03:57:12;29.33;;;17.97;;
11807;SDS011;5961;42.640;23.380;2023-02-15T03:59:58;27.77;;;18.63;;
11807;SDS011;5961;42.640;23.380;2023-02-15T04:02:47;32.27;;;18.37;;
11807;SDS011;5961;42.640;23.380;2023-02-15T04:05:36;28.13;;;18.00;;
11807;SDS011;5961;42.640;23.380;2023-02-15T04:08:04;30.10;;;17.63;;
11807;SDS011;5961;42.640;23.380;2023-02-15T04:10:31;27.40;;;17.97;;
11807;SDS011;5961;42.640;23.380;2023-02-15T04:13:14;32.37;;;19.13;;
11807;SDS011;5961;42.640;23.380;2023-02-15T04:15:41;31.87;;;18.90;;
11807;SDS011;5961;42.640;23.380;2023-02-15T04:18:28;29.07;;;18.07;;
11807;SDS011;5961;42.640;23.380;2023-02-15T04:21:13;32.37;;;18.77;;
11807;SDS011;5961;42.640;23.380;2023-02-15T04:23:58;28.83;;;17.73;;
11807;SDS011;5961;42.640;23.380;2023-02-15T04:26:42;30.30;;;18.23;;
11807;SDS011;5961;42.640;23.380;2023-02-15T04:29:09;29.67;;;18.17;;
11807;SDS011;5961;42.640;23.380;2023-02-15T04:31:36;29.87;;;18.23;;
11807;SDS011;5961;42.640;23.380;2023-02-15T04:34:02;28.20;;;17.37;;
11807;SDS011;5961;42.640;23.380;2023-02-15T04:36:29;33.83;;;19.90;;
11807;SDS011;5961;42.640;23.380;2023-02-15T04:38:56;30.50;;;18.63;;
11807;SDS011;5961;42.640;23.380;2023-02-15T04:41:24;28.03;;;18.03;;
11807;SDS011;5961;42.640;23.380;2023-02-15T04:43:50;31.83;;;19.50;;
11807;SDS011;5961;42.640;23.380;2023-02-15T04:46:17;29.03;;;18.93;;
11807;SDS011;5961;42.640;23.380;2023-02-15T04:48:44;31.53;;;18.97;;
11807;SDS011;5961;42.640;23.380;2023-02-15T04:51:10;30.97;;;18.70;;
11807;SDS011;5961;42.640;23.380;2023-02-15T04:53:37;30.90;;;18.50;;
11807;SDS011;5961;42.640;23.380;2023-02-15T04:56:05;30.20;;;19.27;;
11807;SDS011;5961;42.640;23.380;2023-02-15T04:58:32;29.67;;;18.63;;
11807;SDS011;5961;42.640;23.380;2023-02-15T05:01:00;29.17;;;18.43;;
11807;SDS011;5961;42.640;23.380;2023-02-15T05:03:26;30.30;;;18.53;;
11807;SDS011;5961;42.640;23.380;2023-02-15T05:05:53;31.43;;;19.23;;
11807;SDS011;5961;42.640;23.380;2023-02-15T05:08:20;30.90;;;19.57;;
11807;SDS011;5961;42.640;23.380;2023-02-15T05:10:47;34.17;;;18.87;;
11807;SDS011;5961;42.640;23.380;2023-02-15T05:13:15;28.20;;;19.07;;
11807;SDS011;5961;42.640;23.380;2023-02-15T05:15:46;31.80;;;18.73;;
11807;SDS011;5961;42.640;23.380;2023-02-15T05:18:13;31.27;;;19.27;;
11807;SDS011;5961;42.640;23.380;2023-02-15T05:20:39;30.27;;;18.97;;
11807;SDS011;5961;42.640;23.380;2023-02-15T05:23:06;28.97;;;17.97;;
11807;SDS011;5961;42.640;23.380;2023-02-15T05:25:33;30.47;;;17.87;;
11807;SDS011;5961;42.640;23.380;2023-02-15T05:28:25;33.83;;;18.63;;
11807;SDS011;5961;42.640;23.380;2023-02-15T05:30:58;30.63;;;18.50;;
11807;SDS011;5961;42.640;23.380;2023-02-15T05:33:30;31.70;;;18.67;;
11807;SDS011;5961;42.640;23.380;2023-02-15T05:35:57;30.00;;;18.90;;
11807;SDS011;5961;42.640;23.380;2023-02-15T05:38:24;31.13;;;18.57;;
11807;SDS011;5961;42.640;23.380;2023-02-15T05:40:50;32.03;;;19.13;;
11807;SDS011;5961;42.640;23.380;2023-02-15T05:43:17;29.43;;;18.60;;
11807;SDS011;5961;42.640;23.380;2023-02-15T05:45:46;32.27;;;19.37;;
11807;SDS011;5961;42.640;23.380;2023-02-15T05:48:13;32.37;;;17.60;;
11807;SDS011;5961;42.640;23.380;2023-02-15T05:50:40;31.53;;;18.67;;
11807;SDS011;5961;42.640;23.380;2023-02-15T05:53:07;29.40;;;18.50;;
11807;SDS011;5961;42.640;23.380;2023-02-15T05:55:34;29.97;;;18.67;;
11807;SDS011;5961;42.640;23.380;2023-02-15T05:58:03;31.97;;;18.60;;
11807;SDS011;5961;42.640;23.380;2023-02-15T06:00:29;28.90;;;18.30;;
11807;SDS011;5961;42.640;23.380;2023-02-15T06:02:57;29.60;;;17.77;;
11807;SDS011;5961;42.640;23.380;2023-02-15T06:05:24;27.80;;;17.47;;
11807;SDS011;5961;42.640;23.380;2023-02-15T06:07:51;28.37;;;17.40;;
11807;SDS011;5961;42.640;23.380;2023-02-15T06:10:17;28.87;;;17.70;;
11807;SDS011;5961;42.640;23.380;2023-02-15T06:12:44;29.40;;;18.47;;
11807;SDS011;5961;42.640;23.380;2023-02-15T06:15:11;29.90;;;18.80;;
11807;SDS011;5961;42.640;23.380;2023-02-15T06:17:40;32.07;;;18.53;;
11807;SDS011;5961;42.640;23.380;2023-02-15T06:20:09;29.50;;;17.57;;
11807;SDS011;5961;42.640;23.380;2023-02-15T06:22:36;25.93;;;17.57;;
11807;SDS011;5961;42.640;23.380;2023-02-15T06:25:03;28.17;;;17.13;;
11807;SDS011;5961;42.640;23.380;2023-02-15T06:27:30;28.40;;;17.83;;
11807;SDS011;5961;42.640;23.380;2023-02-15T06:29:57;27.67;;;17.57;;
11807;SDS011;5961;42.640;23.380;2023-02-15T06:32:23;28.97;;;17.57;;
11807;SDS011;5961;42.640;23.380;2023-02-15T06:34:50;28.97;;;17.60;;
11807;SDS011;5961;42.640;23.380;2023-02-15T06:37:18;27.40;;;16.97;;
11807;SDS011;5961;42.640;23.380;2023-02-15T06:39:45;30.80;;;19.10;;
11807;SDS011;5961;42.640;23.380;2023-02-15T06:42:11;29.73;;;17.53;;
11807;SDS011;5961;42.640;23.380;2023-02-15T06:44:38;28.97;;;17.47;;
11807;SDS011;5961;42.640;23.380;2023-02-15T06:47:05;26.00;;;17.03;;
11807;SDS011;5961;42.640;23.380;2023-02-15T06:49:31;29.50;;;17.40;;
11807;SDS011;5961;42.640;23.380;2023-02-15T06:51:58;28.77;;;17.23;;
11807;SDS011;5961;42.640;23.380;2023-02-15T06:54:26;24.80;;;16.60;;
11807;SDS011;5961;42.640;23.380;2023-02-15T06:56:53;28.57;;;17.67;;
11807;SDS011;5961;42.640;23.380;2023-02-15T06:59:19;27.97;;;16.77;;
11807;SDS011;5961;42.640;23.380;2023-02-15T07:01:46;24.97;;;15.47;;
11807;SDS011;5961;42.640;23.380;2023-02-15T07:04:14;24.83;;;16.13;;
11807;SDS011;5961;42.640;23.380;2023-02-15T07:06:40;28.43;;;16.43;;
11807;SDS011;5961;42.640;23.380;2023-02-15T07:09:07;25.67;;;15.90;;
11807;SDS011;5961;42.640;23.380;2023-02-15T07:11:35;26.10;;;15.80;;
11807;SDS011;5961;42.640;23.380;2023-02-15T07:14:19;24.17;;;15.77;;
11807;SDS011;5961;42.640;23.380;2023-02-15T07:16:46;22.30;;;14.33;;
11807;SDS011;5961;42.640;23.380;2023-02-15T07:19:13;23.27;;;15.23;;
11807;SDS011;5961;42.640;23.380;2023-02-15T07:21:40;23.53;;;14.80;;
11807;SDS011;5961;42.640;23.380;2023-02-15T07:24:06;21.13;;;14.13;;
11807;SDS011;5961;42.640;23.380;2023-02-15T07:26:33;23.53;;;15.13;;
11807;SDS011;5961;42.640;23.380;2023-02-15T07:29:01;22.93;;;13.57;;
11807;SDS011;5961;42.640;23.380;2023-02-15T07:31:28;20.40;;;13.47;;
11807;SDS011;5961;42.640;23.380;2023-02-15T07:33:55;20.37;;;13.77;;
11807;SDS011;5961;42.640;23.380;2023-02-15T07:36:22;21.50;;;13.20;;
11807;SDS011;5961;42.640;23.380;2023-02-15T07:38:48;21.30;;;13.50;;
11807;SDS011;5961;42.640;23.380;2023-02-15T07:41:15;22.00;;;14.30;;
11807;SDS011;5961;42.640;23.380;2023-02-15T07:43:43;24.37;;;14.03;;
11807;SDS011;5961;42.640;23.380;2023-02-15T07:46:13;25.20;;;15.10;;
11807;SDS011;5961;42.640;23.380;2023-02-15T07:48:43;21.60;;;13.30;;
11807;SDS011;5961;42.640;23.380;2023-02-15T07:51:10;20.07;;;13.13;;
11807;SDS011;5961;42.640;23.380;2023-02-15T07:53:38;19.73;;;13.30;;
11807;SDS011;5961;42.640;23.380;2023-02-15T07:56:06;21.13;;;14.10;;
11807;SDS011;5961;42.640;23.380;2023-02-15T07:58:35;24.60;;;13.60;;
11807;SDS011;5961;42.640;23.380;2023-02-15T08:01:18;22.97;;;13.40;;
11807;SDS011;5961;42.640;23.380;2023-02-15T08:03:47;21.73;;;13.23;;
11807;SDS011;5961;42.640;23.380;2023-02-15T08:06:14;23.70;;;14.10;;
11807;SDS011;5961;42.640;23.380;2023-02-15T08:08:41;23.07;;;14.67;;
11807;SDS011;5961;42.640;23.380;2023-02-15T08:11:14;24.07;;;13.57;;
11807;SDS011;5961;42.640;23.380;2023-02-15T08:13:52;23.67;;;14.67;;
11807;SDS011;5961;42.640;23.380;2023-02-15T08:16:24;27.77;;;15.43;;
11807;SDS011;5961;42.640;23.380;2023-02-15T08:18:53;22.33;;;14.43;;
11807;SDS011;5961;42.640;23.380;2023-02-15T08:21:21;23.93;;;14.70;;
11807;SDS011;5961;42.640;23.380;2023-02-15T08:23:48;23.37;;;13.77;;
11807;SDS011;5961;42.640;23.380;2023-02-15T08:26:15;20.43;;;13.77;;
11807;SDS011;5961;42.640;23.380;2023-02-15T08:28:42;21.90;;;13.67;;
11807;SDS011;5961;42.640;23.380;2023-02-15T08:31:09;23.53;;;14.23;;
11807;SDS011;5961;42.640;23.380;2023-02-15T08:33:38;20.17;;;13.10;;
11807;SDS011;5961;42.640;23.380;2023-02-15T08:36:08;20.90;;;13.53;;
11807;SDS011;5961;42.640;23.380;2023-02-15T08:38:36;21.00;;;13.40;;
11807;SDS011;5961;42.640;23.380;2023-02-15T08:41:13;21.27;;;13.53;;
11807;SDS011;5961;42.640;23.380;2023-02-15T08:43:42;21.87;;;14.10;;
11807;SDS011;5961;42.640;23.380;2023-02-15T08:46:10;21.63;;;14.47;;
11807;SDS011;5961;42.640;23.380;2023-02-15T08:48:38;20.57;;;13.47;;
11807;SDS011;5961;42.640;23.380;2023-02-15T08:51:07;20.43;;;13.43;;
11807;SDS011;5961;42.640;23.380;2023-02-15T08:53:36;23.80;;;14.10;;
11807;SDS011;5961;42.640;23.380;2023-02-15T08:56:04;19.93;;;13.17;;
11807;SDS011;5961;42.640;23.380;2023-02-15T08:58:31;23.53;;;14.17;;
11807;SDS011;5961;42.640;23.380;2023-02-15T09:00:58;23.90;;;13.73;;
11807;SDS011;5961;42.640;23.380;2023-02-15T09:03:27;20.57;;;13.13;;
11807;SDS011;5961;42.640;23.380;2023-02-15T09:05:57;24.30;;;14.33;;
11807;SDS011;5961;42.640;23.380;2023-02-15T09:08:25;19.23;;;13.00;;
11807;SDS011;5961;42.640;23.380;2023-02-15T09:10:52;20.43;;;13.30;;
11807;SDS011;5961;42.640;23.380;2023-02-15T09:13:19;21.50;;;13.43;;
11807;SDS011;5961;42.640;23.380;2023-02-15T09:15:46;20.37;;;13.23;;
11807;SDS011;5961;42.640;23.380;2023-02-15T09:18:13;21.60;;;14.03;;
11807;SDS011;5961;42.640;23.380;2023-02-15T09:20:42;20.43;;;13.73;;
11807;SDS011;5961;42.640;23.380;2023-02-15T09:23:10;19.47;;;13.27;;
11807;SDS011;5961;42.640;23.380;2023-02-15T09:25:37;20.03;;;13.40;;
11807;SDS011;5961;42.640;23.380;2023-02-15T09:28:04;23.90;;;13.50;;
11807;SDS011;5961;42.640;23.380;2023-02-15T09:30:30;19.93;;;13.90;;
11807;SDS011;5961;42.640;23.380;2023-02-15T09:32:57;19.73;;;13.03;;
11807;SDS011;5961;42.640;23.380;2023-02-15T09:35:24;21.70;;;14.60;;
11807;SDS011;5961;42.640;23.380;2023-02-15T09:37:51;20.30;;;13.37;;
11807;SDS011;5961;42.640;23.380;2023-02-15T09:40:19;20.07;;;13.07;;
11807;SDS011;5961;42.640;23.380;2023-02-15T09:42:52;20.13;;;13.73;;
11807;SDS011;5961;42.640;23.380;2023-02-15T09:45:41;20.03;;;13.37;;
11807;SDS011;5961;42.640;23.380;2023-02-15T09:48:18;19.80;;;13.13;;
11807;SDS011;5961;42.640;23.380;2023-02-15T09:50:59;20.00;;;13.53;;
11807;SDS011;5961;42.640;23.380;2023-02-15T09:53:42;19.73;;;12.83;;
11807;SDS011;5961;42.640;23.380;2023-02-15T09:56:28;19.50;;;12.57;;
11807;SDS011;5961;42.640;23.380;2023-02-15T09:59:03;21.27;;;12.97;;
11807;SDS011;5961;42.640;23.380;2023-02-15T10:01:36;20.37;;;12.63;;
11807;SDS011;5961;42.640;23.380;2023-02-15T10:07:10;21.10;;;14.27;;
11807;SDS011;5961;42.640;23.380;2023-02-15T10:09:52;18.63;;;13.10;;
11807;SDS011;5961;42.640;23.380;2023-02-15T10:18:31;23.13;;;14.63;;
11807;SDS011;5961;42.640;23.380;2023-02-15T10:21:07;19.10;;;13.10;;
11807;SDS011;5961;42.640;23.380;2023-02-15T10:23:54;22.00;;;14.03;;
11807;SDS011;5961;42.640;23.380;2023-02-15T10:26:36;23.13;;;14.20;;
11807;SDS011;5961;42.640;23.380;2023-02-15T10:29:12;24.40;;;14.80;;
11807;SDS011;5961;42.640;23.380;2023-02-15T10:31:48;22.17;;;13.67;;
11807;SDS011;5961;42.640;23.380;2023-02-15T10:34:18;20.37;;;14.20;;
11807;SDS011;5961;42.640;23.380;2023-02-15T10:36:50;20.80;;;13.67;;
11807;SDS011;5961;42.640;23.380;2023-02-15T10:39:31;23.50;;;14.47;;
11807;SDS011;5961;42.640;23.380;2023-02-15T10:42:06;21.23;;;14.57;;
11807;SDS011;5961;42.640;23.380;2023-02-15T10:44:47;23.17;;;15.17;;
11807;SDS011;5961;42.640;23.380;2023-02-15T10:50:17;22.00;;;15.43;;
11807;SDS011;5961;42.640;23.380;2023-02-15T10:55:55;23.03;;;15.27;;
11807;SDS011;5961;42.640;23.380;2023-02-15T10:58:29;22.03;;;14.37;;
11807;SDS011;5961;42.640;23.380;2023-02-15T11:01:09;18.87;;;13.87;;
11807;SDS011;5961;42.640;23.380;2023-02-15T11:03:54;20.97;;;14.30;;
11807;SDS011;5961;42.640;23.380;2023-02-15T11:06:41;21.97;;;14.43;;
11807;SDS011;5961;42.640;23.380;2023-02-15T11:09:14;21.37;;;14.50;;
11807;SDS011;5961;42.640;23.380;2023-02-15T11:11:44;24.23;;;14.97;;
11807;SDS011;5961;42.640;23.380;2023-02-15T11:14:14;22.37;;;14.40;;
11807;SDS011;5961;42.640;23.380;2023-02-15T11:16:48;23.63;;;15.17;;
11807;SDS011;5961;42.640;23.380;2023-02-15T11:19:19;21.80;;;15.33;;
11807;SDS011;5961;42.640;23.380;2023-02-15T11:21:50;25.93;;;15.30;;
11807;SDS011;5961;42.640;23.380;2023-02-15T11:24:21;23.57;;;15.23;;
11807;SDS011;5961;42.640;23.380;2023-02-15T11:26:53;22.80;;;15.50;;
11807;SDS011;5961;42.640;23.380;2023-02-15T11:29:25;22.87;;;14.47;;
11807;SDS011;5961;42.640;23.380;2023-02-15T11:31:59;20.07;;;14.10;;
11807;SDS011;5961;42.640;23.380;2023-02-15T11:34:31;21.20;;;15.43;;
11807;SDS011;5961;42.640;23.380;2023-02-15T11:37:05;22.17;;;15.37;;
11807;SDS011;5961;42.640;23.380;2023-02-15T11:39:36;21.67;;;15.63;;
11807;SDS011;5961;42.640;23.380;2023-02-15T11:42:04;23.50;;;15.23;;
11807;SDS011;5961;42.640;23.380;2023-02-15T11:44:38;23.27;;;15.53;;
11807;SDS011;5961;42.640;23.380;2023-02-15T11:47:10;21.43;;;14.60;;
11807;SDS011;5961;42.640;23.380;2023-02-15T11:49:38;21.03;;;14.43;;
11807;SDS011;5961;42.640;23.380;2023-02-15T11:52:05;24.50;;;14.70;;
11807;SDS011;5961;42.640;23.380;2023-02-15T11:54:34;23.43;;;15.50;;
11807;SDS011;5961;42.640;23.380;2023-02-15T11:57:03;24.83;;;15.77;;
11807;SDS011;5961;42.640;23.380;2023-02-15T11:59:38;23.27;;;15.30;;
11807;SDS011;5961;42.640;23.380;2023-02-15T12:02:15;22.27;;;14.37;;
11807;SDS011;5961;42.640;23.380;2023-02-15T12:04:44;22.63;;;15.87;;
11807;SDS011;5961;42.640;23.380;2023-02-15T12:07:17;21.87;;;15.43;;
11807;SDS011;5961;42.640;23.380;2023-02-15T12:09:51;23.83;;;15.27;;
11807;SDS011;5961;42.640;23.380;2023-02-15T12:12:26;23.47;;;16.60;;
11807;SDS011;5961;42.640;23.380;2023-02-15T12:14:54;24.90;;;16.73;;
11807;SDS011;5961;42.640;23.380;2023-02-15T12:17:24;21.47;;;14.77;;
11807;SDS011;5961;42.640;23.380;2023-02-15T12:19:54;22.40;;;15.47;;
11807;SDS011;5961;42.640;23.380;2023-02-15T12:22:24;21.90;;;15.30;;
11807;SDS011;5961;42.640;23.380;2023-02-15T12:24:54;22.10;;;15.23;;
11807;SDS011;5961;42.640;23.380;2023-02-15T12:27:23;23.30;;;16.33;;
11807;SDS011;5961;42.640;23.380;2023-02-15T12:29:53;25.40;;;16.60;;
11807;SDS011;5961;42.640;23.380;2023-02-15T12:32:25;23.57;;;15.80;;
11807;SDS011;5961;42.640;23.380;2023-02-15T12:34:55;23.43;;;15.97;;
11807;SDS011;5961;42.640;23.380;2023-02-15T12:37:27;23.40;;;15.93;;
11807;SDS011;5961;42.640;23.380;2023-02-15T12:39:57;23.23;;;16.60;;
11807;SDS011;5961;42.640;23.380;2023-02-15T12:42:25;22.13;;;15.47;;
11807;SDS011;5961;42.640;23.380;2023-02-15T12:44:55;23.83;;;16.53;;
11807;SDS011;5961;42.640;23.380;2023-02-15T12:47:26;22.60;;;16.00;;
11807;SDS011;5961;42.640;23.380;2023-02-15T12:50:06;23.27;;;16.93;;
11807;SDS011;5961;42.640;23.380;2023-02-15T12:52:48;22.07;;;15.70;;
11807;SDS011;5961;42.640;23.380;2023-02-15T12:55:23;24.67;;;16.90;;
11807;SDS011;5961;42.640;23.380;2023-02-15T12:58:07;24.27;;;17.27;;
11807;SDS011;5961;42.640;23.380;2023-02-15T13:00:35;22.80;;;15.83;;
11807;SDS011;5961;42.640;23.380;2023-02-15T13:03:03;23.10;;;16.50;;
11807;SDS011;5961;42.640;23.380;2023-02-15T13:05:31;23.93;;;17.10;;
11807;SDS011;5961;42.640;23.380;2023-02-15T13:08:02;23.00;;;16.47;;
11807;SDS011;5961;42.640;23.380;2023-02-15T13:10:36;21.73;;;16.07;;
11807;SDS011;5961;42.640;23.380;2023-02-15T13:13:08;24.07;;;17.53;;
11807;SDS011;5961;42.640;23.380;2023-02-15T13:15:37;22.67;;;16.50;;
11807;SDS011;5961;42.640;23.380;2023-02-15T13:18:10;22.37;;;17.27;;
11807;SDS011;5961;42.640;23.380;2023-02-15T13:20:42;24.40;;;16.93;;
11807;SDS011;5961;42.640;23.380;2023-02-15T13:23:15;21.53;;;16.70;;
11807;SDS011;5961;42.640;23.380;2023-02-15T13:25:52;22.07;;;16.03;;
11807;SDS011;5961;42.640;23.380;2023-02-15T13:28:22;22.37;;;16.70;;
11807;SDS011;5961;42.640;23.380;2023-02-15T13:30:53;20.63;;;15.77;;
11807;SDS011;5961;42.640;23.380;2023-02-15T13:33:22;24.67;;;17.30;;
11807;SDS011;5961;42.640;23.380;2023-02-15T13:35:59;21.07;;;16.13;;
11807;SDS011;5961;42.640;23.380;2023-02-15T13:38:45;20.17;;;16.20;;
11807;SDS011;5961;42.640;23.380;2023-02-15T13:41:16;21.43;;;16.70;;
11807;SDS011;5961;42.640;23.380;2023-02-15T13:43:48;22.93;;;16.63;;
11807;SDS011;5961;42.640;23.380;2023-02-15T13:46:31;20.83;;;16.47;;
11807;SDS011;5961;42.640;23.380;2023-02-15T13:49:12;21.53;;;16.83;;
11807;SDS011;5961;42.640;23.380;2023-02-15T13:51:49;23.07;;;17.10;;
11807;SDS011;5961;42.640;23.380;2023-02-15T13:54:29;22.53;;;17.27;;
11807;SDS011;5961;42.640;23.380;2023-02-15T13:57:18;20.37;;;15.97;;
11807;SDS011;5961;42.640;23.380;2023-02-15T13:59:58;22.30;;;17.10;;
11807;SDS011;5961;42.640;23.380;2023-02-15T14:02:43;24.33;;;17.90;;
11807;SDS011;5961;42.640;23.380;2023-02-15T14:05:31;22.13;;;16.77;;
11807;SDS011;5961;42.640;23.380;2023-02-15T14:08:08;22.13;;;17.27;;
11807;SDS011;5961;42.640;23.380;2023-02-15T14:10:46;21.67;;;16.53;;
11807;SDS011;5961;42.640;23.380;2023-02-15T14:16:23;23.57;;;16.83;;
11807;SDS011;5961;42.640;23.380;2023-02-15T14:18:59;21.37;;;16.70;;
11807;SDS011;5961;42.640;23.380;2023-02-15T14:21:50;23.53;;;17.80;;
11807;SDS011;5961;42.640;23.380;2023-02-15T14:24:25;25.60;;;17.97;;
11807;SDS011;5961;42.640;23.380;2023-02-15T14:26:59;25.73;;;18.20;;
11807;SDS011;5961;42.640;23.380;2023-02-15T14:29:41;24.13;;;17.47;;
11807;SDS011;5961;42.640;23.380;2023-02-15T14:32:15;24.37;;;17.93;;
11807;SDS011;5961;42.640;23.380;2023-02-15T14:34:47;25.10;;;18.07;;
11807;SDS011;5961;42.640;23.380;2023-02-15T14:37:19;24.83;;;17.60;;
11807;SDS011;5961;42.640;23.380;2023-02-15T14:39:51;23.43;;;17.07;;
11807;SDS011;5961;42.640;23.380;2023-02-15T14:42:43;22.67;;;17.20;;
11807;SDS011;5961;42.640;23.380;2023-02-15T14:45:17;24.93;;;17.43;;
11807;SDS011;5961;42.640;23.380;2023-02-15T14:47:48;25.80;;;17.30;;
11807;SDS011;5961;42.640;23.380;2023-02-15T14:50:40;26.67;;;18.60;;
11807;SDS011;5961;42.640;23.380;2023-02-15T14:53:24;24.10;;;17.27;;
11807;SDS011;5961;42.640;23.380;2023-02-15T14:56:20;25.70;;;18.40;;
11807;SDS011;5961;42.640;23.380;2023-02-15T14:58:54;25.53;;;18.20;;
11807;SDS011;5961;42.640;23.380;2023-02-15T15:01:25;23.27;;;17.43;;
11807;SDS011;5961;42.640;23.380;2023-02-15T15:03:54;28.83;;;18.50;;
11807;SDS011;5961;42.640;23.380;2023-02-15T15:06:25;27.77;;;18.47;;